Pudoz, Russia
Current Conditions -  °F | °C
As of 5:00 PM on Thursday 23 Oct 2014 (Local Time) from ULPB Reporting Station
NA  
Wind Chill: 24°   Ceiling: NA
Heat Index: 30°   Visibility: 6mi
Dew Point: 23°   Wind: 7mph
Humidity: 75%   Direction: 350°N
Pressure: 30.59"   Gusts: NA
Location:  61.8°N, 36.52°E
Report Text: ULPB 231400Z AUTO 35003MPS 320V020 9999 ////// M01/M05 Q1036
Loading
Personal Weather Stations






























Interactive Weather Map
Tropical Storm Tracking
New forecast layout! Learn more

10-Day Weather Forecast

Advertisements
Track Severe Weather on mobile